sensor_id;sensor_type;location;lat;lon;timestamp;temperature;humidity
16578;DHT22;8401;52.528;13.340;2023-08-30T00:00:13;14.90;99.90
16578;DHT22;8401;52.528;13.340;2023-08-30T00:02:39;14.90;99.90
16578;DHT22;8401;52.528;13.340;2023-08-30T00:05:05;15.00;99.90
16578;DHT22;8401;52.528;13.340;2023-08-30T00:07:31;14.90;99.90
16578;DHT22;8401;52.528;13.340;2023-08-30T00:09:58;14.90;99.90
16578;DHT22;8401;52.528;13.340;2023-08-30T00:12:24;14.90;99.90
16578;DHT22;8401;52.528;13.340;2023-08-30T00:14:50;14.80;99.90
16578;DHT22;8401;52.528;13.340;2023-08-30T00:17:16;14.90;99.90
16578;DHT22;8401;52.528;13.340;2023-08-30T00:19:41;14.90;99.90
16578;DHT22;8401;52.528;13.340;2023-08-30T00:22:07;14.90;99.90
16578;DHT22;8401;52.528;13.340;2023-08-30T00:24:33;14.90;99.90
16578;DHT22;8401;52.528;13.340;2023-08-30T00:27:00;14.80;99.90
16578;DHT22;8401;52.528;13.340;2023-08-30T00:29:26;14.80;99.90
16578;DHT22;8401;52.528;13.340;2023-08-30T00:31:52;14.70;99.90
16578;DHT22;8401;52.528;13.340;2023-08-30T00:34:18;14.70;99.90
16578;DHT22;8401;52.528;13.340;2023-08-30T00:36:43;14.70;99.90
16578;DHT22;8401;52.528;13.340;2023-08-30T00:39:09;14.70;99.90
16578;DHT22;8401;52.528;13.340;2023-08-30T00:41:34;14.80;99.90
16578;DHT22;8401;52.528;13.340;2023-08-30T00:44:01;14.80;99.90
16578;DHT22;8401;52.528;13.340;2023-08-30T00:46:27;14.80;99.90
16578;DHT22;8401;52.528;13.340;2023-08-30T00:48:53;14.80;99.90
16578;DHT22;8401;52.528;13.340;2023-08-30T00:51:19;14.80;99.90
16578;DHT22;8401;52.528;13.340;2023-08-30T00:53:46;14.70;99.90
16578;DHT22;8401;52.528;13.340;2023-08-30T00:56:12;14.80;99.90
16578;DHT22;8401;52.528;13.340;2023-08-30T00:58:38;14.70;99.90
16578;DHT22;8401;52.528;13.340;2023-08-30T01:01:04;14.80;99.90
16578;DHT22;8401;52.528;13.340;2023-08-30T01:03:36;14.70;99.90
16578;DHT22;8401;52.528;13.340;2023-08-30T01:06:03;14.70;99.90
16578;DHT22;8401;52.528;13.340;2023-08-30T01:08:29;14.70;99.90
16578;DHT22;8401;52.528;13.340;2023-08-30T01:11:09;14.70;99.90
16578;DHT22;8401;52.528;13.340;2023-08-30T01:14:00;14.70;99.90
16578;DHT22;8401;52.528;13.340;2023-08-30T01:16:30;14.60;99.90
16578;DHT22;8401;52.528;13.340;2023-08-30T01:18:58;14.60;99.90
16578;DHT22;8401;52.528;13.340;2023-08-30T01:21:44;14.70;99.90
16578;DHT22;8401;52.528;13.340;2023-08-30T01:24:20;14.70;99.90
16578;DHT22;8401;52.528;13.340;2023-08-30T01:27:07;14.70;99.90
16578;DHT22;8401;52.528;13.340;2023-08-30T01:29:34;14.60;99.90
16578;DHT22;8401;52.528;13.340;2023-08-30T01:32:02;14.60;99.90
16578;DHT22;8401;52.528;13.340;2023-08-30T01:34:28;14.70;99.90
16578;DHT22;8401;52.528;13.340;2023-08-30T01:36:54;14.70;99.90
16578;DHT22;8401;52.528;13.340;2023-08-30T01:39:21;14.70;99.90
16578;DHT22;8401;52.528;13.340;2023-08-30T01:41:48;14.70;99.90
16578;DHT22;8401;52.528;13.340;2023-08-30T01:44:14;14.60;99.90
16578;DHT22;8401;52.528;13.340;2023-08-30T01:46:42;14.60;99.90
16578;DHT22;8401;52.528;13.340;2023-08-30T01:49:10;14.60;99.90
16578;DHT22;8401;52.528;13.340;2023-08-30T01:51:36;14.60;99.90
16578;DHT22;8401;52.528;13.340;2023-08-30T01:54:03;14.70;99.90
16578;DHT22;8401;52.528;13.340;2023-08-30T01:56:29;14.70;99.90
16578;DHT22;8401;52.528;13.340;2023-08-30T01:58:55;14.70;99.90
16578;DHT22;8401;52.528;13.340;2023-08-30T02:01:20;14.70;99.90
16578;DHT22;8401;52.528;13.340;2023-08-30T02:03:46;14.60;99.90
16578;DHT22;8401;52.528;13.340;2023-08-30T02:06:17;14.60;99.90
16578;DHT22;8401;52.528;13.340;2023-08-30T02:08:46;14.60;99.90
16578;DHT22;8401;52.528;13.340;2023-08-30T02:11:17;14.60;99.90
16578;DHT22;8401;52.528;13.340;2023-08-30T02:13:45;14.50;99.90
16578;DHT22;8401;52.528;13.340;2023-08-30T02:16:13;14.60;99.90
16578;DHT22;8401;52.528;13.340;2023-08-30T02:18:40;14.50;99.90
16578;DHT22;8401;52.528;13.340;2023-08-30T02:21:06;14.50;99.90
16578;DHT22;8401;52.528;13.340;2023-08-30T02:23:32;14.40;99.90
16578;DHT22;8401;52.528;13.340;2023-08-30T02:25:57;14.40;99.90
16578;DHT22;8401;52.528;13.340;2023-08-30T02:28:23;14.30;99.90
16578;DHT22;8401;52.528;13.340;2023-08-30T02:30:52;14.30;99.90
16578;DHT22;8401;52.528;13.340;2023-08-30T02:33:18;14.30;99.90
16578;DHT22;8401;52.528;13.340;2023-08-30T02:35:43;14.30;99.90
16578;DHT22;8401;52.528;13.340;2023-08-30T02:38:09;14.30;99.90
16578;DHT22;8401;52.528;13.340;2023-08-30T02:40:34;14.20;99.90
16578;DHT22;8401;52.528;13.340;2023-08-30T02:43:00;14.30;99.90
16578;DHT22;8401;52.528;13.340;2023-08-30T02:45:26;14.30;99.90
16578;DHT22;8401;52.528;13.340;2023-08-30T02:47:55;14.30;99.90
16578;DHT22;8401;52.528;13.340;2023-08-30T02:50:21;14.20;99.90
16578;DHT22;8401;52.528;13.340;2023-08-30T02:52:46;14.20;99.90
16578;DHT22;8401;52.528;13.340;2023-08-30T02:55:12;14.20;99.90
16578;DHT22;8401;52.528;13.340;2023-08-30T02:57:38;14.20;99.90
16578;DHT22;8401;52.528;13.340;2023-08-30T03:00:04;14.20;99.90
16578;DHT22;8401;52.528;13.340;2023-08-30T03:02:32;14.20;99.90
16578;DHT22;8401;52.528;13.340;2023-08-30T03:04:58;14.20;99.90
16578;DHT22;8401;52.528;13.340;2023-08-30T03:07:25;14.20;99.90
16578;DHT22;8401;52.528;13.340;2023-08-30T03:09:54;14.20;99.90
16578;DHT22;8401;52.528;13.340;2023-08-30T03:12:20;14.10;99.90
16578;DHT22;8401;52.528;13.340;2023-08-30T03:14:46;14.20;99.90
16578;DHT22;8401;52.528;13.340;2023-08-30T03:17:11;14.20;99.90
16578;DHT22;8401;52.528;13.340;2023-08-30T03:19:37;14.10;99.90
16578;DHT22;8401;52.528;13.340;2023-08-30T03:22:03;14.10;99.90
16578;DHT22;8401;52.528;13.340;2023-08-30T03:24:28;14.20;99.90
16578;DHT22;8401;52.528;13.340;2023-08-30T03:26:54;14.10;99.90
16578;DHT22;8401;52.528;13.340;2023-08-30T03:29:20;14.10;99.90
16578;DHT22;8401;52.528;13.340;2023-08-30T03:31:45;14.10;99.90
16578;DHT22;8401;52.528;13.340;2023-08-30T03:34:11;14.10;99.90
16578;DHT22;8401;52.528;13.340;2023-08-30T03:36:37;14.10;99.90
16578;DHT22;8401;52.528;13.340;2023-08-30T03:39:03;14.10;99.90
16578;DHT22;8401;52.528;13.340;2023-08-30T03:41:29;14.10;99.90
16578;DHT22;8401;52.528;13.340;2023-08-30T03:43:54;14.10;99.90
16578;DHT22;8401;52.528;13.340;2023-08-30T03:46:20;14.10;99.90
16578;DHT22;8401;52.528;13.340;2023-08-30T03:48:46;14.00;99.90
16578;DHT22;8401;52.528;13.340;2023-08-30T03:51:12;14.10;99.90
16578;DHT22;8401;52.528;13.340;2023-08-30T03:53:38;14.10;99.90
16578;DHT22;8401;52.528;13.340;2023-08-30T03:56:04;14.10;99.90
16578;DHT22;8401;52.528;13.340;2023-08-30T03:58:29;14.10;99.90
16578;DHT22;8401;52.528;13.340;2023-08-30T04:00:56;14.10;99.90
16578;DHT22;8401;52.528;13.340;2023-08-30T04:03:22;14.10;99.90
16578;DHT22;8401;52.528;13.340;2023-08-30T04:05:48;14.10;99.90
16578;DHT22;8401;52.528;13.340;2023-08-30T04:08:13;14.10;99.90
16578;DHT22;8401;52.528;13.340;2023-08-30T04:10:41;14.10;99.90
16578;DHT22;8401;52.528;13.340;2023-08-30T04:13:08;14.10;99.90
16578;DHT22;8401;52.528;13.340;2023-08-30T04:15:36;14.20;99.90
16578;DHT22;8401;52.528;13.340;2023-08-30T04:18:02;14.10;99.90
16578;DHT22;8401;52.528;13.340;2023-08-30T04:20:28;14.10;99.90
16578;DHT22;8401;52.528;13.340;2023-08-30T04:22:54;14.10;99.90
16578;DHT22;8401;52.528;13.340;2023-08-30T04:25:22;14.10;99.90
16578;DHT22;8401;52.528;13.340;2023-08-30T04:27:48;14.10;99.90
16578;DHT22;8401;52.528;13.340;2023-08-30T04:30:15;14.00;99.90
16578;DHT22;8401;52.528;13.340;2023-08-30T04:32:41;14.00;99.90
16578;DHT22;8401;52.528;13.340;2023-08-30T04:35:07;14.00;99.90
16578;DHT22;8401;52.528;13.340;2023-08-30T04:37:33;14.10;99.90
16578;DHT22;8401;52.528;13.340;2023-08-30T04:39:58;14.10;99.90
16578;DHT22;8401;52.528;13.340;2023-08-30T04:42:24;14.10;99.90
16578;DHT22;8401;52.528;13.340;2023-08-30T04:44:51;14.10;99.90
16578;DHT22;8401;52.528;13.340;2023-08-30T04:47:17;14.10;99.90
16578;DHT22;8401;52.528;13.340;2023-08-30T04:49:43;14.10;99.90
16578;DHT22;8401;52.528;13.340;2023-08-30T04:52:08;14.20;99.90
16578;DHT22;8401;52.528;13.340;2023-08-30T04:54:34;14.20;99.90
16578;DHT22;8401;52.528;13.340;2023-08-30T04:57:00;14.30;99.90
16578;DHT22;8401;52.528;13.340;2023-08-30T04:59:25;14.20;99.90
16578;DHT22;8401;52.528;13.340;2023-08-30T05:01:51;14.30;99.90
16578;DHT22;8401;52.528;13.340;2023-08-30T05:04:17;14.30;99.90
16578;DHT22;8401;52.528;13.340;2023-08-30T05:06:43;14.40;99.90
16578;DHT22;8401;52.528;13.340;2023-08-30T05:09:09;14.40;99.90
16578;DHT22;8401;52.528;13.340;2023-08-30T05:11:35;14.50;99.90
16578;DHT22;8401;52.528;13.340;2023-08-30T05:14:00;14.50;99.90
16578;DHT22;8401;52.528;13.340;2023-08-30T05:16:26;14.50;99.90
16578;DHT22;8401;52.528;13.340;2023-08-30T05:18:52;14.60;99.90
16578;DHT22;8401;52.528;13.340;2023-08-30T05:21:17;14.70;99.90
16578;DHT22;8401;52.528;13.340;2023-08-30T05:23:45;14.80;99.90
16578;DHT22;8401;52.528;13.340;2023-08-30T05:26:12;14.80;99.90
16578;DHT22;8401;52.528;13.340;2023-08-30T05:28:42;14.90;99.90
16578;DHT22;8401;52.528;13.340;2023-08-30T05:31:08;14.90;99.90
16578;DHT22;8401;52.528;13.340;2023-08-30T05:33:34;15.00;99.90
16578;DHT22;8401;52.528;13.340;2023-08-30T05:35:59;15.00;99.90
16578;DHT22;8401;52.528;13.340;2023-08-30T05:38:25;15.00;99.90
16578;DHT22;8401;52.528;13.340;2023-08-30T05:40:51;15.10;99.90
16578;DHT22;8401;52.528;13.340;2023-08-30T05:43:16;15.10;99.90
16578;DHT22;8401;52.528;13.340;2023-08-30T05:45:43;15.10;99.90
16578;DHT22;8401;52.528;13.340;2023-08-30T05:48:09;15.20;99.90
16578;DHT22;8401;52.528;13.340;2023-08-30T05:50:34;15.30;99.90
16578;DHT22;8401;52.528;13.340;2023-08-30T05:53:00;15.20;99.90
16578;DHT22;8401;52.528;13.340;2023-08-30T05:55:26;15.30;99.90
16578;DHT22;8401;52.528;13.340;2023-08-30T05:57:52;15.40;99.90
16578;DHT22;8401;52.528;13.340;2023-08-30T06:00:17;15.30;99.90
16578;DHT22;8401;52.528;13.340;2023-08-30T06:02:43;15.40;99.90
16578;DHT22;8401;52.528;13.340;2023-08-30T06:05:09;15.40;99.90
16578;DHT22;8401;52.528;13.340;2023-08-30T06:07:35;15.50;99.90
16578;DHT22;8401;52.528;13.340;2023-08-30T06:10:01;15.60;99.90
16578;DHT22;8401;52.528;13.340;2023-08-30T06:12:27;15.60;99.90
16578;DHT22;8401;52.528;13.340;2023-08-30T06:14:52;15.60;99.90
16578;DHT22;8401;52.528;13.340;2023-08-30T06:17:19;15.70;99.90
16578;DHT22;8401;52.528;13.340;2023-08-30T06:19:45;15.80;99.90
16578;DHT22;8401;52.528;13.340;2023-08-30T06:22:12;15.70;99.90
16578;DHT22;8401;52.528;13.340;2023-08-30T06:24:38;15.80;99.90
16578;DHT22;8401;52.528;13.340;2023-08-30T06:27:04;15.90;99.90
16578;DHT22;8401;52.528;13.340;2023-08-30T06:29:29;15.90;99.90
16578;DHT22;8401;52.528;13.340;2023-08-30T06:31:55;15.90;99.90
16578;DHT22;8401;52.528;13.340;2023-08-30T06:34:21;16.00;99.90
16578;DHT22;8401;52.528;13.340;2023-08-30T06:36:47;16.10;99.90
16578;DHT22;8401;52.528;13.340;2023-08-30T06:39:12;16.10;99.90
16578;DHT22;8401;52.528;13.340;2023-08-30T06:41:38;16.10;99.90
16578;DHT22;8401;52.528;13.340;2023-08-30T06:44:04;16.20;99.90
16578;DHT22;8401;52.528;13.340;2023-08-30T06:46:31;16.20;99.90
16578;DHT22;8401;52.528;13.340;2023-08-30T06:48:56;16.30;99.90
16578;DHT22;8401;52.528;13.340;2023-08-30T06:51:22;16.20;99.90
16578;DHT22;8401;52.528;13.340;2023-08-30T06:53:48;16.20;99.90
16578;DHT22;8401;52.528;13.340;2023-08-30T06:56:13;16.30;99.90
16578;DHT22;8401;52.528;13.340;2023-08-30T06:58:39;16.40;99.90
16578;DHT22;8401;52.528;13.340;2023-08-30T07:01:05;16.50;99.90
16578;DHT22;8401;52.528;13.340;2023-08-30T07:03:31;16.70;99.90
16578;DHT22;8401;52.528;13.340;2023-08-30T07:05:56;16.90;99.90
16578;DHT22;8401;52.528;13.340;2023-08-30T07:08:22;16.80;99.90
16578;DHT22;8401;52.528;13.340;2023-08-30T07:10:48;17.00;99.90
16578;DHT22;8401;52.528;13.340;2023-08-30T07:13:14;16.70;99.90
16578;DHT22;8401;52.528;13.340;2023-08-30T07:15:40;16.70;99.90
16578;DHT22;8401;52.528;13.340;2023-08-30T07:18:10;16.80;99.90
16578;DHT22;8401;52.528;13.340;2023-08-30T07:20:35;17.00;99.90
16578;DHT22;8401;52.528;13.340;2023-08-30T07:23:04;17.20;99.90
16578;DHT22;8401;52.528;13.340;2023-08-30T07:25:31;17.00;99.90
16578;DHT22;8401;52.528;13.340;2023-08-30T07:28:01;17.00;99.90
16578;DHT22;8401;52.528;13.340;2023-08-30T07:30:27;16.90;99.90
16578;DHT22;8401;52.528;13.340;2023-08-30T07:32:54;16.90;99.90
16578;DHT22;8401;52.528;13.340;2023-08-30T07:35:19;16.90;99.90
16578;DHT22;8401;52.528;13.340;2023-08-30T07:37:45;16.80;99.90
16578;DHT22;8401;52.528;13.340;2023-08-30T07:40:11;17.00;99.90
16578;DHT22;8401;52.528;13.340;2023-08-30T07:42:37;17.10;99.90
16578;DHT22;8401;52.528;13.340;2023-08-30T07:45:03;16.90;99.90
16578;DHT22;8401;52.528;13.340;2023-08-30T07:47:29;17.00;99.90
16578;DHT22;8401;52.528;13.340;2023-08-30T07:49:55;16.90;99.90
16578;DHT22;8401;52.528;13.340;2023-08-30T07:52:21;16.80;99.90
16578;DHT22;8401;52.528;13.340;2023-08-30T07:54:47;16.90;99.90
16578;DHT22;8401;52.528;13.340;2023-08-30T07:57:12;17.20;99.90
16578;DHT22;8401;52.528;13.340;2023-08-30T07:59:38;17.20;99.90
16578;DHT22;8401;52.528;13.340;2023-08-30T08:02:05;17.30;99.90
16578;DHT22;8401;52.528;13.340;2023-08-30T08:04:32;17.20;99.90
16578;DHT22;8401;52.528;13.340;2023-08-30T08:06:57;17.10;99.90
16578;DHT22;8401;52.528;13.340;2023-08-30T08:09:23;17.30;99.90
16578;DHT22;8401;52.528;13.340;2023-08-30T08:11:49;17.50;99.90
16578;DHT22;8401;52.528;13.340;2023-08-30T08:14:15;17.30;99.90
16578;DHT22;8401;52.528;13.340;2023-08-30T08:16:41;17.20;99.90
16578;DHT22;8401;52.528;13.340;2023-08-30T08:19:06;17.00;99.90
16578;DHT22;8401;52.528;13.340;2023-08-30T08:21:33;17.10;99.90
16578;DHT22;8401;52.528;13.340;2023-08-30T08:23:59;17.10;99.90
16578;DHT22;8401;52.528;13.340;2023-08-30T08:26:25;17.20;99.90
16578;DHT22;8401;52.528;13.340;2023-08-30T08:28:51;17.20;99.90
16578;DHT22;8401;52.528;13.340;2023-08-30T08:31:16;17.20;99.90
16578;DHT22;8401;52.528;13.340;2023-08-30T08:33:43;17.30;99.90
16578;DHT22;8401;52.528;13.340;2023-08-30T08:36:09;17.40;99.90
16578;DHT22;8401;52.528;13.340;2023-08-30T08:38:35;17.60;99.90
16578;DHT22;8401;52.528;13.340;2023-08-30T08:41:05;17.70;99.90
16578;DHT22;8401;52.528;13.340;2023-08-30T08:43:32;17.60;99.90
16578;DHT22;8401;52.528;13.340;2023-08-30T08:46:00;17.80;99.90
16578;DHT22;8401;52.528;13.340;2023-08-30T08:48:28;17.90;99.90
16578;DHT22;8401;52.528;13.340;2023-08-30T08:50:55;18.00;99.90
16578;DHT22;8401;52.528;13.340;2023-08-30T08:53:22;18.00;99.90
16578;DHT22;8401;52.528;13.340;2023-08-30T08:55:48;18.20;99.90
16578;DHT22;8401;52.528;13.340;2023-08-30T08:58:15;18.40;99.90
16578;DHT22;8401;52.528;13.340;2023-08-30T09:00:44;19.00;99.90
16578;DHT22;8401;52.528;13.340;2023-08-30T09:03:11;18.80;99.90
16578;DHT22;8401;52.528;13.340;2023-08-30T09:05:40;18.70;99.90
16578;DHT22;8401;52.528;13.340;2023-08-30T09:08:06;18.90;99.90
16578;DHT22;8401;52.528;13.340;2023-08-30T09:10:32;18.80;99.90
16578;DHT22;8401;52.528;13.340;2023-08-30T09:12:59;18.80;99.90
16578;DHT22;8401;52.528;13.340;2023-08-30T09:15:34;19.00;99.90
16578;DHT22;8401;52.528;13.340;2023-08-30T09:18:02;19.30;99.90
16578;DHT22;8401;52.528;13.340;2023-08-30T09:20:28;19.60;99.90
16578;DHT22;8401;52.528;13.340;2023-08-30T09:22:54;19.90;99.90
16578;DHT22;8401;52.528;13.340;2023-08-30T09:25:27;20.50;99.90
16578;DHT22;8401;52.528;13.340;2023-08-30T09:27:59;20.50;99.90
16578;DHT22;8401;52.528;13.340;2023-08-30T09:30:26;22.00;99.90
16578;DHT22;8401;52.528;13.340;2023-08-30T09:32:52;21.60;99.90
16578;DHT22;8401;52.528;13.340;2023-08-30T09:35:18;22.40;99.90
16578;DHT22;8401;52.528;13.340;2023-08-30T09:37:47;22.30;99.90
16578;DHT22;8401;52.528;13.340;2023-08-30T09:40:18;23.50;99.90
16578;DHT22;8401;52.528;13.340;2023-08-30T09:42:44;23.40;99.90
16578;DHT22;8401;52.528;13.340;2023-08-30T09:45:21;24.10;99.90
16578;DHT22;8401;52.528;13.340;2023-08-30T09:47:50;24.40;99.90
16578;DHT22;8401;52.528;13.340;2023-08-30T09:50:19;24.30;99.90
16578;DHT22;8401;52.528;13.340;2023-08-30T09:52:49;24.70;99.90
16578;DHT22;8401;52.528;13.340;2023-08-30T09:55:18;26.60;99.90
16578;DHT22;8401;52.528;13.340;2023-08-30T09:57:44;25.10;99.90
16578;DHT22;8401;52.528;13.340;2023-08-30T10:00:11;25.00;99.90
16578;DHT22;8401;52.528;13.340;2023-08-30T10:02:43;25.30;99.90
16578;DHT22;8401;52.528;13.340;2023-08-30T10:05:10;25.80;99.90
16578;DHT22;8401;52.528;13.340;2023-08-30T10:07:37;25.80;99.90
16578;DHT22;8401;52.528;13.340;2023-08-30T10:10:04;26.50;99.90
16578;DHT22;8401;52.528;13.340;2023-08-30T10:12:31;26.00;99.90
16578;DHT22;8401;52.528;13.340;2023-08-30T10:14:58;25.70;99.90
16578;DHT22;8401;52.528;13.340;2023-08-30T10:17:28;24.10;99.90
16578;DHT22;8401;52.528;13.340;2023-08-30T10:19:56;23.00;99.90
16578;DHT22;8401;52.528;13.340;2023-08-30T10:22:23;22.80;99.90
16578;DHT22;8401;52.528;13.340;2023-08-30T10:24:56;22.50;99.90
16578;DHT22;8401;52.528;13.340;2023-08-30T10:27:22;22.30;99.90
16578;DHT22;8401;52.528;13.340;2023-08-30T10:29:50;23.10;99.90
16578;DHT22;8401;52.528;13.340;2023-08-30T10:32:20;23.00;99.90
16578;DHT22;8401;52.528;13.340;2023-08-30T10:34:50;23.70;99.90
16578;DHT22;8401;52.528;13.340;2023-08-30T10:37:22;23.30;99.90
16578;DHT22;8401;52.528;13.340;2023-08-30T10:39:52;22.50;99.90
16578;DHT22;8401;52.528;13.340;2023-08-30T10:42:22;22.40;99.90
16578;DHT22;8401;52.528;13.340;2023-08-30T10:45:03;22.60;99.90
16578;DHT22;8401;52.528;13.340;2023-08-30T10:47:35;22.60;99.90
16578;DHT22;8401;52.528;13.340;2023-08-30T10:50:08;22.40;99.90
16578;DHT22;8401;52.528;13.340;2023-08-30T10:52:34;22.30;99.90
16578;DHT22;8401;52.528;13.340;2023-08-30T10:55:14;22.30;99.90
16578;DHT22;8401;52.528;13.340;2023-08-30T10:57:44;22.20;99.90
16578;DHT22;8401;52.528;13.340;2023-08-30T11:00:22;22.90;99.90
16578;DHT22;8401;52.528;13.340;2023-08-30T11:02:49;22.90;99.90
16578;DHT22;8401;52.528;13.340;2023-08-30T11:05:16;23.30;99.90
16578;DHT22;8401;52.528;13.340;2023-08-30T11:07:43;22.80;99.90
16578;DHT22;8401;52.528;13.340;2023-08-30T11:10:09;22.10;99.90
16578;DHT22;8401;52.528;13.340;2023-08-30T11:12:35;21.70;99.90
16578;DHT22;8401;52.528;13.340;2023-08-30T11:15:01;21.50;99.90
16578;DHT22;8401;52.528;13.340;2023-08-30T11:17:27;21.70;99.90
16578;DHT22;8401;52.528;13.340;2023-08-30T11:20:07;21.40;99.90
16578;DHT22;8401;52.528;13.340;2023-08-30T11:22:44;21.50;99.90
16578;DHT22;8401;52.528;13.340;2023-08-30T11:25:11;21.70;99.90
16578;DHT22;8401;52.528;13.340;2023-08-30T11:27:39;21.60;99.90
16578;DHT22;8401;52.528;13.340;2023-08-30T11:30:09;21.50;99.90
16578;DHT22;8401;52.528;13.340;2023-08-30T11:32:37;21.80;99.90
16578;DHT22;8401;52.528;13.340;2023-08-30T11:35:03;21.90;99.90
16578;DHT22;8401;52.528;13.340;2023-08-30T11:37:29;22.10;99.90
16578;DHT22;8401;52.528;13.340;2023-08-30T11:39:56;22.20;99.90
16578;DHT22;8401;52.528;13.340;2023-08-30T11:42:22;22.20;99.90
16578;DHT22;8401;52.528;13.340;2023-08-30T11:44:49;22.00;99.90
16578;DHT22;8401;52.528;13.340;2023-08-30T11:47:18;22.00;99.90
16578;DHT22;8401;52.528;13.340;2023-08-30T11:49:46;22.40;99.90
16578;DHT22;8401;52.528;13.340;2023-08-30T11:52:11;22.00;99.90
16578;DHT22;8401;52.528;13.340;2023-08-30T11:54:37;22.30;99.90
16578;DHT22;8401;52.528;13.340;2023-08-30T11:57:03;22.70;99.90
16578;DHT22;8401;52.528;13.340;2023-08-30T11:59:29;22.50;99.90
16578;DHT22;8401;52.528;13.340;2023-08-30T12:02:00;22.40;99.90
16578;DHT22;8401;52.528;13.340;2023-08-30T12:04:25;22.60;99.90
16578;DHT22;8401;52.528;13.340;2023-08-30T12:06:54;21.80;99.90
16578;DHT22;8401;52.528;13.340;2023-08-30T12:09:20;21.60;99.90
16578;DHT22;8401;52.528;13.340;2023-08-30T12:11:49;21.60;99.90
16578;DHT22;8401;52.528;13.340;2023-08-30T12:14:15;21.70;99.90
16578;DHT22;8401;52.528;13.340;2023-08-30T12:16:41;22.00;99.90
16578;DHT22;8401;52.528;13.340;2023-08-30T12:19:08;22.30;99.90
16578;DHT22;8401;52.528;13.340;2023-08-30T12:21:44;21.90;99.90
16578;DHT22;8401;52.528;13.340;2023-08-30T12:24:10;22.00;99.90
16578;DHT22;8401;52.528;13.340;2023-08-30T12:26:36;22.30;99.90
16578;DHT22;8401;52.528;13.340;2023-08-30T12:29:07;21.90;99.90
16578;DHT22;8401;52.528;13.340;2023-08-30T12:31:33;21.80;99.90
16578;DHT22;8401;52.528;13.340;2023-08-30T12:33:59;21.80;99.90
16578;DHT22;8401;52.528;13.340;2023-08-30T12:36:24;21.50;99.90
16578;DHT22;8401;52.528;13.340;2023-08-30T12:38:50;21.30;99.90
16578;DHT22;8401;52.528;13.340;2023-08-30T12:41:16;21.20;99.90
16578;DHT22;8401;52.528;13.340;2023-08-30T12:43:41;21.30;99.90
16578;DHT22;8401;52.528;13.340;2023-08-30T12:46:07;21.40;99.90
16578;DHT22;8401;52.528;13.340;2023-08-30T12:48:33;21.60;99.90
16578;DHT22;8401;52.528;13.340;2023-08-30T12:50:58;21.40;99.90
16578;DHT22;8401;52.528;13.340;2023-08-30T12:53:24;21.50;99.90
16578;DHT22;8401;52.528;13.340;2023-08-30T12:55:50;21.50;99.90
16578;DHT22;8401;52.528;13.340;2023-08-30T12:58:15;21.60;99.90
16578;DHT22;8401;52.528;13.340;2023-08-30T13:00:41;21.20;99.90
16578;DHT22;8401;52.528;13.340;2023-08-30T13:03:07;21.10;99.90
16578;DHT22;8401;52.528;13.340;2023-08-30T13:05:33;20.80;99.90
16578;DHT22;8401;52.528;13.340;2023-08-30T13:07:59;20.60;99.90
16578;DHT22;8401;52.528;13.340;2023-08-30T13:10:25;20.60;99.90
16578;DHT22;8401;52.528;13.340;2023-08-30T13:12:51;20.60;99.90
16578;DHT22;8401;52.528;13.340;2023-08-30T13:15:17;20.60;99.90
16578;DHT22;8401;52.528;13.340;2023-08-30T13:17:43;20.60;99.90
16578;DHT22;8401;52.528;13.340;2023-08-30T13:20:09;20.60;99.90
16578;DHT22;8401;52.528;13.340;2023-08-30T13:22:35;20.70;99.90
16578;DHT22;8401;52.528;13.340;2023-08-30T13:25:01;20.70;99.90
16578;DHT22;8401;52.528;13.340;2023-08-30T13:27:29;20.70;99.90
16578;DHT22;8401;52.528;13.340;2023-08-30T13:29:55;20.90;99.90
16578;DHT22;8401;52.528;13.340;2023-08-30T13:32:21;20.80;99.90
16578;DHT22;8401;52.528;13.340;2023-08-30T13:34:46;20.90;99.90
16578;DHT22;8401;52.528;13.340;2023-08-30T13:37:13;20.80;99.90
16578;DHT22;8401;52.528;13.340;2023-08-30T13:39:41;20.70;99.90
16578;DHT22;8401;52.528;13.340;2023-08-30T13:42:07;20.80;99.90
16578;DHT22;8401;52.528;13.340;2023-08-30T13:44:33;20.90;99.90
16578;DHT22;8401;52.528;13.340;2023-08-30T13:47:05;20.60;99.90
16578;DHT22;8401;52.528;13.340;2023-08-30T13:49:31;20.50;99.90
16578;DHT22;8401;52.528;13.340;2023-08-30T13:51:57;20.70;99.90
16578;DHT22;8401;52.528;13.340;2023-08-30T13:54:23;21.00;99.90
16578;DHT22;8401;52.528;13.340;2023-08-30T13:56:49;21.10;99.90
16578;DHT22;8401;52.528;13.340;2023-08-30T13:59:16;21.40;99.90
16578;DHT22;8401;52.528;13.340;2023-08-30T14:01:41;21.60;99.90
16578;DHT22;8401;52.528;13.340;2023-08-30T14:04:08;22.10;99.90
16578;DHT22;8401;52.528;13.340;2023-08-30T14:06:33;22.20;99.90
16578;DHT22;8401;52.528;13.340;2023-08-30T14:09:01;22.50;99.90
16578;DHT22;8401;52.528;13.340;2023-08-30T14:11:27;22.50;99.90
16578;DHT22;8401;52.528;13.340;2023-08-30T14:13:52;22.30;99.90
16578;DHT22;8401;52.528;13.340;2023-08-30T14:16:18;22.10;99.90
16578;DHT22;8401;52.528;13.340;2023-08-30T14:18:44;22.30;99.90
16578;DHT22;8401;52.528;13.340;2023-08-30T14:21:09;22.80;99.90
16578;DHT22;8401;52.528;13.340;2023-08-30T14:23:35;23.30;99.90
16578;DHT22;8401;52.528;13.340;2023-08-30T14:26:03;23.20;99.90
16578;DHT22;8401;52.528;13.340;2023-08-30T14:28:34;23.90;99.90
16578;DHT22;8401;52.528;13.340;2023-08-30T14:31:00;23.90;99.90
16578;DHT22;8401;52.528;13.340;2023-08-30T14:33:26;24.20;99.90
16578;DHT22;8401;52.528;13.340;2023-08-30T14:35:52;23.70;99.90
16578;DHT22;8401;52.528;13.340;2023-08-30T14:38:17;23.20;99.90
16578;DHT22;8401;52.528;13.340;2023-08-30T14:40:43;23.00;99.90
16578;DHT22;8401;52.528;13.340;2023-08-30T14:43:09;23.00;99.90
16578;DHT22;8401;52.528;13.340;2023-08-30T14:45:35;22.60;99.90
16578;DHT22;8401;52.528;13.340;2023-08-30T14:48:00;22.90;99.90
16578;DHT22;8401;52.528;13.340;2023-08-30T14:50:26;22.70;99.90
16578;DHT22;8401;52.528;13.340;2023-08-30T14:52:52;22.80;99.90
16578;DHT22;8401;52.528;13.340;2023-08-30T14:55:20;23.20;99.90
16578;DHT22;8401;52.528;13.340;2023-08-30T14:57:46;22.80;99.90
16578;DHT22;8401;52.528;13.340;2023-08-30T15:00:12;22.90;99.90
16578;DHT22;8401;52.528;13.340;2023-08-30T15:02:38;22.10;99.90
16578;DHT22;8401;52.528;13.340;2023-08-30T15:05:03;22.10;99.90
16578;DHT22;8401;52.528;13.340;2023-08-30T15:07:29;22.30;99.90
16578;DHT22;8401;52.528;13.340;2023-08-30T15:09:55;22.20;99.90
16578;DHT22;8401;52.528;13.340;2023-08-30T15:12:20;22.20;99.90
16578;DHT22;8401;52.528;13.340;2023-08-30T15:14:46;22.20;99.90
16578;DHT22;8401;52.528;13.340;2023-08-30T15:17:14;22.10;99.90
16578;DHT22;8401;52.528;13.340;2023-08-30T15:19:39;21.90;99.90
16578;DHT22;8401;52.528;13.340;2023-08-30T15:22:05;21.90;99.90
16578;DHT22;8401;52.528;13.340;2023-08-30T15:24:30;21.50;99.90
16578;DHT22;8401;52.528;13.340;2023-08-30T15:26:56;21.20;99.90